MDLR/LRM METAR and TAF weather

Enter ICAO airport designator
Station Type Date Time Source
MDLR METAR 2021/09/16 22:00 UTC NOAA

MDLR 162200Z 00000KT 9999 SCT016 BKN300 28/25 Q1015


Station Type Date Time Source
MDLR Decoded METAR 2021/09/16 22:00 UTC NOAA

La Romana International Airport, Dominican Republic (MDLR) 18-25N 068-57W
Sep 16, 2021 - 06:00 PM EDT / 2021.09.16 2200 UTC
Wind: Calm:0
Visibility: greater than 7 mile(s):0
Sky conditions: mostly cloudy
Temperature: 82 F (28 C)
Dew Point: 77 F (25 C)
Relative Humidity: 83%
Pressure (altimeter): 29.97 in. Hg (1015 hPa)
ob: MDLR 162200Z 00000KT 9999 SCT016 BKN300 28/25 Q1015
cycle: 22

Station Type Date Time Source
MDLR TAF 2021/09/16 18:03 UTC NOAA

TAF TAF MDLR 161600Z 1618/1718 1012KT 9999 SCT018 SCT070 PROB30 1618/1623 7000 TSSH FEW014CB SCT016 BKN300
BECMG 1619/1621 12012KT

Example: see airport list